Hlavní strana
METAR-TAF:

METAR-TAF

Letiště :

Førde, Norsko

zeměpisná šířka: 61-27N, zeměpisná délka: 005-52E, výška: 150 m

Aktuální stav počasí

Zpráva byla vytvořena před 29 hodinami a 46 minutami, v 15:50 UTC
Jihojihozápadní vítr 10 kt
Teplota 12°C
Vlhkost vzduchu 82%
Tlak 1008 hPa
Viditelnost 10 km a více
Skoro jasno ve výšce 1500 ft
Polojasno ve výšce 2000 ft
Oblačno až skoro zataženo ve výšce 3500 ft
přeháňky v blízkosti

METAR: ENBL 171550Z 20010KT 9999 VCSH FEW015 SCT020 BKN035 12/09 Q1008

Čas: 23:36 (21:36 UTC)


TAF: chybějící

Stav a předpovědi počasí z více než 4 000 letišť (zprávy METAR a TAF).

Červené a žluté tečky na mapě představují dostupné meteorologické stanice.

Když kurzor umístíte na tečku, zobrazí se název stanice.

Pak kliknutím zobrazíte stav a předpověď počasí.

Chcete-li změnit mapu, kliknutím na zelené tlačítko se znaménkem +mapu přiblížíte, kliknutím na zelené tlačítko se znaménkem – mapu oddálíte a kliknutím na zelené šipky přejdete na sousední mapy.


METAR-TAF: